sensor_id;sensor_type;location;lat;lon;timestamp;P1;durP1;ratioP1;P2;durP2;ratioP2
23015;SDS011;11674;52.428;13.584;2023-03-01T00:02:22;18.80;;;10.10;;
23015;SDS011;11674;52.428;13.584;2023-03-01T00:07:29;22.90;;;10.23;;
23015;SDS011;11674;52.428;13.584;2023-03-01T00:12:36;19.50;;;10.43;;
23015;SDS011;11674;52.428;13.584;2023-03-01T00:17:43;18.92;;;9.48;;
23015;SDS011;11674;52.428;13.584;2023-03-01T00:22:50;22.98;;;10.25;;
23015;SDS011;11674;52.428;13.584;2023-03-01T00:27:57;20.77;;;10.15;;
23015;SDS011;11674;52.428;13.584;2023-03-01T00:33:04;19.38;;;10.13;;
23015;SDS011;11674;52.428;13.584;2023-03-01T00:38:11;25.20;;;11.63;;
23015;SDS011;11674;52.428;13.584;2023-03-01T00:43:18;22.25;;;11.30;;
23015;SDS011;11674;52.428;13.584;2023-03-01T00:48:25;21.73;;;11.05;;
23015;SDS011;11674;52.428;13.584;2023-03-01T00:53:33;19.50;;;9.70;;
23015;SDS011;11674;52.428;13.584;2023-03-01T00:58:41;25.25;;;11.85;;
23015;SDS011;11674;52.428;13.584;2023-03-01T01:03:52;26.27;;;12.73;;
23015;SDS011;11674;52.428;13.584;2023-03-01T01:09:15;18.67;;;10.73;;
23015;SDS011;11674;52.428;13.584;2023-03-01T01:14:23;21.83;;;10.95;;
23015;SDS011;11674;52.428;13.584;2023-03-01T01:19:30;20.65;;;10.80;;
23015;SDS011;11674;52.428;13.584;2023-03-01T01:24:37;23.23;;;11.77;;
23015;SDS011;11674;52.428;13.584;2023-03-01T01:29:44;20.83;;;10.00;;
23015;SDS011;11674;52.428;13.584;2023-03-01T01:34:51;25.05;;;10.95;;
23015;SDS011;11674;52.428;13.584;2023-03-01T01:39:59;19.73;;;9.95;;
23015;SDS011;11674;52.428;13.584;2023-03-01T01:50:57;18.83;;;10.38;;
23015;SDS011;11674;52.428;13.584;2023-03-01T01:56:07;16.13;;;8.38;;
23015;SDS011;11674;52.428;13.584;2023-03-01T02:01:17;14.25;;;8.38;;
23015;SDS011;11674;52.428;13.584;2023-03-01T02:06:28;15.63;;;8.07;;
23015;SDS011;11674;52.428;13.584;2023-03-01T02:11:37;14.80;;;7.50;;
23015;SDS011;11674;52.428;13.584;2023-03-01T02:16:44;16.38;;;7.78;;
23015;SDS011;11674;52.428;13.584;2023-03-01T02:22:03;15.38;;;8.27;;
23015;SDS011;11674;52.428;13.584;2023-03-01T02:27:19;15.75;;;8.55;;
23015;SDS011;11674;52.428;13.584;2023-03-01T02:32:33;21.08;;;8.93;;
23015;SDS011;11674;52.428;13.584;2023-03-01T02:37:41;21.27;;;9.00;;
23015;SDS011;11674;52.428;13.584;2023-03-01T02:42:53;16.40;;;8.68;;
23015;SDS011;11674;52.428;13.584;2023-03-01T02:48:04;16.45;;;9.07;;
23015;SDS011;11674;52.428;13.584;2023-03-01T02:53:12;18.40;;;8.82;;
23015;SDS011;11674;52.428;13.584;2023-03-01T02:58:24;16.05;;;8.80;;
23015;SDS011;11674;52.428;13.584;2023-03-01T03:03:30;16.13;;;9.00;;
23015;SDS011;11674;52.428;13.584;2023-03-01T03:08:37;18.55;;;9.95;;
23015;SDS011;11674;52.428;13.584;2023-03-01T03:13:44;17.33;;;9.80;;
23015;SDS011;11674;52.428;13.584;2023-03-01T03:18:52;17.88;;;9.88;;
23015;SDS011;11674;52.428;13.584;2023-03-01T03:23:58;21.38;;;9.05;;
23015;SDS011;11674;52.428;13.584;2023-03-01T03:29:05;19.95;;;9.63;;
23015;SDS011;11674;52.428;13.584;2023-03-01T03:34:12;15.30;;;9.10;;
23015;SDS011;11674;52.428;13.584;2023-03-01T03:39:19;18.70;;;10.10;;
23015;SDS011;11674;52.428;13.584;2023-03-01T03:44:26;20.05;;;10.18;;
23015;SDS011;11674;52.428;13.584;2023-03-01T03:49:33;19.92;;;10.70;;
23015;SDS011;11674;52.428;13.584;2023-03-01T03:54:40;18.48;;;10.10;;
23015;SDS011;11674;52.428;13.584;2023-03-01T03:59:48;16.73;;;9.35;;
23015;SDS011;11674;52.428;13.584;2023-03-01T04:04:54;17.42;;;9.02;;
23015;SDS011;11674;52.428;13.584;2023-03-01T04:10:05;21.75;;;10.50;;
23015;SDS011;11674;52.428;13.584;2023-03-01T04:15:13;18.63;;;9.27;;
23015;SDS011;11674;52.428;13.584;2023-03-01T04:20:22;19.48;;;9.43;;
23015;SDS011;11674;52.428;13.584;2023-03-01T04:25:32;21.75;;;10.40;;
23015;SDS011;11674;52.428;13.584;2023-03-01T04:30:39;19.23;;;9.48;;
23015;SDS011;11674;52.428;13.584;2023-03-01T04:35:46;16.92;;;9.52;;
23015;SDS011;11674;52.428;13.584;2023-03-01T04:40:54;19.10;;;9.32;;
23015;SDS011;11674;52.428;13.584;2023-03-01T04:46:01;19.10;;;9.80;;
23015;SDS011;11674;52.428;13.584;2023-03-01T04:51:13;19.38;;;9.43;;
23015;SDS011;11674;52.428;13.584;2023-03-01T04:56:20;18.08;;;8.38;;
23015;SDS011;11674;52.428;13.584;2023-03-01T05:01:26;18.48;;;9.30;;
23015;SDS011;11674;52.428;13.584;2023-03-01T05:06:33;17.80;;;8.80;;
23015;SDS011;11674;52.428;13.584;2023-03-01T05:11:40;15.57;;;9.85;;
23015;SDS011;11674;52.428;13.584;2023-03-01T05:16:48;20.17;;;9.65;;
23015;SDS011;11674;52.428;13.584;2023-03-01T05:21:54;21.05;;;9.77;;
23015;SDS011;11674;52.428;13.584;2023-03-01T05:27:02;15.95;;;9.52;;
23015;SDS011;11674;52.428;13.584;2023-03-01T05:32:08;14.98;;;8.85;;
23015;SDS011;11674;52.428;13.584;2023-03-01T05:37:16;19.08;;;9.27;;
23015;SDS011;11674;52.428;13.584;2023-03-01T05:42:23;16.77;;;9.15;;
23015;SDS011;11674;52.428;13.584;2023-03-01T05:47:29;15.55;;;8.20;;
23015;SDS011;11674;52.428;13.584;2023-03-01T05:52:37;22.88;;;10.23;;
23015;SDS011;11674;52.428;13.584;2023-03-01T05:57:44;16.42;;;8.82;;
23015;SDS011;11674;52.428;13.584;2023-03-01T06:02:51;22.10;;;9.20;;
23015;SDS011;11674;52.428;13.584;2023-03-01T06:07:58;23.52;;;9.20;;
23015;SDS011;11674;52.428;13.584;2023-03-01T06:13:07;20.75;;;9.07;;
23015;SDS011;11674;52.428;13.584;2023-03-01T06:18:13;21.80;;;9.60;;
23015;SDS011;11674;52.428;13.584;2023-03-01T06:23:21;21.60;;;10.23;;
23015;SDS011;11674;52.428;13.584;2023-03-01T06:28:28;17.52;;;9.55;;
23015;SDS011;11674;52.428;13.584;2023-03-01T06:33:35;17.40;;;9.65;;
23015;SDS011;11674;52.428;13.584;2023-03-01T06:38:42;20.08;;;10.18;;
23015;SDS011;11674;52.428;13.584;2023-03-01T06:43:50;21.23;;;10.32;;
23015;SDS011;11674;52.428;13.584;2023-03-01T06:48:57;22.25;;;10.27;;
23015;SDS011;11674;52.428;13.584;2023-03-01T06:54:04;17.00;;;10.02;;
23015;SDS011;11674;52.428;13.584;2023-03-01T06:59:11;22.17;;;12.50;;
23015;SDS011;11674;52.428;13.584;2023-03-01T07:04:17;21.48;;;11.50;;
23015;SDS011;11674;52.428;13.584;2023-03-01T07:09:25;27.50;;;12.15;;
23015;SDS011;11674;52.428;13.584;2023-03-01T07:14:32;19.33;;;11.18;;
23015;SDS011;11674;52.428;13.584;2023-03-01T07:19:39;24.88;;;12.85;;
23015;SDS011;11674;52.428;13.584;2023-03-01T07:24:46;30.35;;;15.07;;
23015;SDS011;11674;52.428;13.584;2023-03-01T07:29:52;28.02;;;14.18;;
23015;SDS011;11674;52.428;13.584;2023-03-01T07:35:00;27.63;;;14.85;;
23015;SDS011;11674;52.428;13.584;2023-03-01T07:40:10;28.25;;;13.60;;
23015;SDS011;11674;52.428;13.584;2023-03-01T07:45:18;28.42;;;15.07;;
23015;SDS011;11674;52.428;13.584;2023-03-01T07:50:24;22.90;;;13.32;;
23015;SDS011;11674;52.428;13.584;2023-03-01T07:55:31;24.48;;;12.18;;
23015;SDS011;11674;52.428;13.584;2023-03-01T08:00:38;23.52;;;12.80;;
23015;SDS011;11674;52.428;13.584;2023-03-01T08:05:46;21.02;;;11.63;;
23015;SDS011;11674;52.428;13.584;2023-03-01T08:10:55;21.80;;;11.18;;
23015;SDS011;11674;52.428;13.584;2023-03-01T08:16:03;22.42;;;12.32;;
23015;SDS011;11674;52.428;13.584;2023-03-01T08:21:16;25.55;;;12.45;;
23015;SDS011;11674;52.428;13.584;2023-03-01T08:26:24;22.98;;;12.65;;
23015;SDS011;11674;52.428;13.584;2023-03-01T08:31:32;25.23;;;12.00;;
23015;SDS011;11674;52.428;13.584;2023-03-01T08:36:40;18.83;;;11.10;;
23015;SDS011;11674;52.428;13.584;2023-03-01T08:41:50;21.60;;;12.20;;
23015;SDS011;11674;52.428;13.584;2023-03-01T08:46:57;21.65;;;12.68;;
23015;SDS011;11674;52.428;13.584;2023-03-01T08:52:04;30.10;;;12.13;;
23015;SDS011;11674;52.428;13.584;2023-03-01T08:57:11;26.33;;;12.50;;
23015;SDS011;11674;52.428;13.584;2023-03-01T09:02:18;19.05;;;10.90;;
23015;SDS011;11674;52.428;13.584;2023-03-01T09:07:26;20.30;;;11.20;;
23015;SDS011;11674;52.428;13.584;2023-03-01T09:12:33;22.67;;;11.32;;
23015;SDS011;11674;52.428;13.584;2023-03-01T09:17:40;20.20;;;10.57;;
23015;SDS011;11674;52.428;13.584;2023-03-01T09:22:47;15.00;;;8.75;;
23015;SDS011;11674;52.428;13.584;2023-03-01T09:27:54;15.35;;;7.15;;
23015;SDS011;11674;52.428;13.584;2023-03-01T09:33:01;16.23;;;7.20;;
23015;SDS011;11674;52.428;13.584;2023-03-01T09:38:08;14.15;;;7.20;;
23015;SDS011;11674;52.428;13.584;2023-03-01T09:48:50;10.25;;;5.20;;
23015;SDS011;11674;52.428;13.584;2023-03-01T09:54:02;10.98;;;5.13;;
23015;SDS011;11674;52.428;13.584;2023-03-01T10:09:49;13.85;;;4.82;;
23015;SDS011;11674;52.428;13.584;2023-03-01T10:15:12;12.30;;;5.40;;
23015;SDS011;11674;52.428;13.584;2023-03-01T10:20:33;11.02;;;4.93;;
23015;SDS011;11674;52.428;13.584;2023-03-01T10:31:15;8.35;;;4.63;;
23015;SDS011;11674;52.428;13.584;2023-03-01T10:36:26;11.48;;;4.60;;
23015;SDS011;11674;52.428;13.584;2023-03-01T10:41:33;8.35;;;4.43;;
23015;SDS011;11674;52.428;13.584;2023-03-01T10:46:40;11.55;;;4.93;;
23015;SDS011;11674;52.428;13.584;2023-03-01T10:51:50;11.43;;;4.80;;
23015;SDS011;11674;52.428;13.584;2023-03-01T10:56:59;9.63;;;5.38;;
23015;SDS011;11674;52.428;13.584;2023-03-01T11:07:16;7.60;;;4.47;;
23015;SDS011;11674;52.428;13.584;2023-03-01T11:12:23;9.02;;;4.63;;
23015;SDS011;11674;52.428;13.584;2023-03-01T11:17:31;9.40;;;4.50;;
23015;SDS011;11674;52.428;13.584;2023-03-01T11:22:38;8.73;;;4.75;;
23015;SDS011;11674;52.428;13.584;2023-03-01T11:27:59;6.40;;;3.87;;
23015;SDS011;11674;52.428;13.584;2023-03-01T11:38:26;8.93;;;4.57;;
23015;SDS011;11674;52.428;13.584;2023-03-01T12:05:36;8.27;;;3.83;;
23015;SDS011;11674;52.428;13.584;2023-03-01T12:10:52;9.13;;;3.93;;
23015;SDS011;11674;52.428;13.584;2023-03-01T12:16:26;6.30;;;2.80;;
23015;SDS011;11674;52.428;13.584;2023-03-01T12:22:17;3.53;;;2.40;;
23015;SDS011;11674;52.428;13.584;2023-03-01T12:27:42;9.70;;;4.80;;
23015;SDS011;11674;52.428;13.584;2023-03-01T12:33:15;6.50;;;3.90;;
23015;SDS011;11674;52.428;13.584;2023-03-01T12:54:56;3.47;;;2.47;;
23015;SDS011;11674;52.428;13.584;2023-03-01T13:05:57;6.25;;;3.10;;
23015;SDS011;11674;52.428;13.584;2023-03-01T13:11:20;3.85;;;1.95;;
23015;SDS011;11674;52.428;13.584;2023-03-01T13:21:38;4.57;;;2.30;;
23015;SDS011;11674;52.428;13.584;2023-03-01T13:27:09;6.38;;;2.42;;
23015;SDS011;11674;52.428;13.584;2023-03-01T13:32:36;4.72;;;2.00;;
23015;SDS011;11674;52.428;13.584;2023-03-01T13:37:43;5.97;;;2.20;;
23015;SDS011;11674;52.428;13.584;2023-03-01T13:42:53;7.00;;;2.42;;
23015;SDS011;11674;52.428;13.584;2023-03-01T13:48:08;2.70;;;1.90;;
23015;SDS011;11674;52.428;13.584;2023-03-01T13:53:29;4.85;;;1.90;;
23015;SDS011;11674;52.428;13.584;2023-03-01T13:58:49;2.80;;;1.87;;
23015;SDS011;11674;52.428;13.584;2023-03-01T14:04:19;3.10;;;1.98;;
23015;SDS011;11674;52.428;13.584;2023-03-01T14:09:38;3.13;;;2.10;;
23015;SDS011;11674;52.428;13.584;2023-03-01T14:14:48;3.87;;;2.20;;
23015;SDS011;11674;52.428;13.584;2023-03-01T14:20:07;2.75;;;1.73;;
23015;SDS011;11674;52.428;13.584;2023-03-01T14:25:29;4.32;;;2.13;;
23015;SDS011;11674;52.428;13.584;2023-03-01T14:30:41;2.70;;;1.70;;
23015;SDS011;11674;52.428;13.584;2023-03-01T14:35:56;3.20;;;2.08;;
23015;SDS011;11674;52.428;13.584;2023-03-01T14:41:12;2.88;;;1.77;;
23015;SDS011;11674;52.428;13.584;2023-03-01T14:46:37;3.15;;;2.03;;
23015;SDS011;11674;52.428;13.584;2023-03-01T14:51:53;3.42;;;2.00;;
23015;SDS011;11674;52.428;13.584;2023-03-01T14:57:04;5.03;;;2.30;;
23015;SDS011;11674;52.428;13.584;2023-03-01T15:02:18;3.50;;;1.90;;
23015;SDS011;11674;52.428;13.584;2023-03-01T15:07:37;2.50;;;1.90;;
23015;SDS011;11674;52.428;13.584;2023-03-01T15:12:47;3.45;;;1.90;;
23015;SDS011;11674;52.428;13.584;2023-03-01T15:17:54;3.05;;;1.70;;
23015;SDS011;11674;52.428;13.584;2023-03-01T15:23:03;3.47;;;1.92;;
23015;SDS011;11674;52.428;13.584;2023-03-01T15:28:12;4.32;;;2.25;;
23015;SDS011;11674;52.428;13.584;2023-03-01T15:38:34;5.28;;;2.15;;
23015;SDS011;11674;52.428;13.584;2023-03-01T15:43:46;5.15;;;2.30;;
23015;SDS011;11674;52.428;13.584;2023-03-01T15:48:54;6.45;;;2.35;;
23015;SDS011;11674;52.428;13.584;2023-03-01T15:54:08;5.30;;;2.10;;
23015;SDS011;11674;52.428;13.584;2023-03-01T15:59:22;4.47;;;1.95;;
23015;SDS011;11674;52.428;13.584;2023-03-01T16:04:29;4.70;;;2.08;;
23015;SDS011;11674;52.428;13.584;2023-03-01T16:09:36;5.90;;;1.98;;
23015;SDS011;11674;52.428;13.584;2023-03-01T16:14:43;3.20;;;1.90;;
23015;SDS011;11674;52.428;13.584;2023-03-01T16:19:50;4.93;;;2.10;;
23015;SDS011;11674;52.428;13.584;2023-03-01T16:24:57;9.27;;;2.55;;
23015;SDS011;11674;52.428;13.584;2023-03-01T16:30:05;3.92;;;2.28;;
23015;SDS011;11674;52.428;13.584;2023-03-01T16:35:13;7.78;;;3.13;;
23015;SDS011;11674;52.428;13.584;2023-03-01T16:40:23;6.15;;;2.45;;
23015;SDS011;11674;52.428;13.584;2023-03-01T16:45:33;5.15;;;2.45;;
23015;SDS011;11674;52.428;13.584;2023-03-01T16:50:41;7.70;;;3.20;;
23015;SDS011;11674;52.428;13.584;2023-03-01T16:55:55;11.45;;;4.70;;
23015;SDS011;11674;52.428;13.584;2023-03-01T17:01:07;9.48;;;3.97;;
23015;SDS011;11674;52.428;13.584;2023-03-01T17:06:18;10.88;;;4.55;;
23015;SDS011;11674;52.428;13.584;2023-03-01T17:11:26;9.00;;;5.05;;
23015;SDS011;11674;52.428;13.584;2023-03-01T17:16:33;10.07;;;5.78;;
23015;SDS011;11674;52.428;13.584;2023-03-01T17:21:40;8.88;;;5.07;;
23015;SDS011;11674;52.428;13.584;2023-03-01T17:26:47;12.40;;;4.90;;
23015;SDS011;11674;52.428;13.584;2023-03-01T17:31:54;10.30;;;4.80;;
23015;SDS011;11674;52.428;13.584;2023-03-01T17:37:01;8.60;;;5.50;;
23015;SDS011;11674;52.428;13.584;2023-03-01T17:42:08;13.75;;;5.78;;
23015;SDS011;11674;52.428;13.584;2023-03-01T17:47:15;13.82;;;6.25;;
23015;SDS011;11674;52.428;13.584;2023-03-01T17:52:22;15.20;;;6.22;;
23015;SDS011;11674;52.428;13.584;2023-03-01T17:57:29;21.23;;;6.70;;
23015;SDS011;11674;52.428;13.584;2023-03-01T18:02:36;9.23;;;5.90;;
23015;SDS011;11674;52.428;13.584;2023-03-01T18:07:43;18.70;;;6.63;;
23015;SDS011;11674;52.428;13.584;2023-03-01T18:12:50;12.52;;;5.25;;
23015;SDS011;11674;52.428;13.584;2023-03-01T18:17:58;10.85;;;4.97;;
23015;SDS011;11674;52.428;13.584;2023-03-01T18:23:05;9.35;;;5.15;;
23015;SDS011;11674;52.428;13.584;2023-03-01T18:28:12;13.43;;;5.53;;
23015;SDS011;11674;52.428;13.584;2023-03-01T18:33:19;14.07;;;4.80;;
23015;SDS011;11674;52.428;13.584;2023-03-01T18:38:26;14.00;;;4.40;;
23015;SDS011;11674;52.428;13.584;2023-03-01T18:43:33;15.50;;;4.40;;
23015;SDS011;11674;52.428;13.584;2023-03-01T18:48:40;12.20;;;4.40;;
23015;SDS011;11674;52.428;13.584;2023-03-01T18:53:47;10.15;;;3.65;;
23015;SDS011;11674;52.428;13.584;2023-03-01T18:58:54;12.75;;;4.07;;
23015;SDS011;11674;52.428;13.584;2023-03-01T19:04:01;10.25;;;4.47;;
23015;SDS011;11674;52.428;13.584;2023-03-01T19:09:08;35.72;;;15.10;;
23015;SDS011;11674;52.428;13.584;2023-03-01T19:14:16;25.50;;;12.95;;
23015;SDS011;11674;52.428;13.584;2023-03-01T19:19:23;25.65;;;9.75;;
23015;SDS011;11674;52.428;13.584;2023-03-01T19:24:30;20.02;;;10.15;;
23015;SDS011;11674;52.428;13.584;2023-03-01T19:29:37;16.70;;;7.50;;
23015;SDS011;11674;52.428;13.584;2023-03-01T19:34:44;14.48;;;6.00;;
23015;SDS011;11674;52.428;13.584;2023-03-01T19:39:51;24.02;;;8.27;;
23015;SDS011;11674;52.428;13.584;2023-03-01T19:44:58;21.50;;;7.85;;
23015;SDS011;11674;52.428;13.584;2023-03-01T19:50:05;26.70;;;13.32;;
23015;SDS011;11674;52.428;13.584;2023-03-01T19:55:12;30.35;;;15.75;;
23015;SDS011;11674;52.428;13.584;2023-03-01T20:00:26;39.35;;;19.10;;
23015;SDS011;11674;52.428;13.584;2023-03-01T20:05:33;35.30;;;17.75;;
23015;SDS011;11674;52.428;13.584;2023-03-01T20:10:41;37.92;;;17.58;;
23015;SDS011;11674;52.428;13.584;2023-03-01T20:15:48;37.78;;;17.52;;
23015;SDS011;11674;52.428;13.584;2023-03-01T20:20:55;29.45;;;14.68;;
23015;SDS011;11674;52.428;13.584;2023-03-01T20:26:07;25.17;;;11.48;;
23015;SDS011;11674;52.428;13.584;2023-03-01T20:31:16;26.80;;;11.48;;
23015;SDS011;11674;52.428;13.584;2023-03-01T20:36:24;20.30;;;10.23;;
23015;SDS011;11674;52.428;13.584;2023-03-01T20:41:32;26.80;;;12.73;;
23015;SDS011;11674;52.428;13.584;2023-03-01T20:46:39;31.35;;;16.77;;
23015;SDS011;11674;52.428;13.584;2023-03-01T20:51:46;37.05;;;16.92;;
23015;SDS011;11674;52.428;13.584;2023-03-01T20:56:53;32.75;;;16.95;;
23015;SDS011;11674;52.428;13.584;2023-03-01T21:02:00;33.00;;;16.45;;
23015;SDS011;11674;52.428;13.584;2023-03-01T21:07:07;29.50;;;15.38;;
23015;SDS011;11674;52.428;13.584;2023-03-01T21:12:14;27.33;;;14.93;;
23015;SDS011;11674;52.428;13.584;2023-03-01T21:17:21;21.48;;;10.77;;
23015;SDS011;11674;52.428;13.584;2023-03-01T21:22:28;20.77;;;11.27;;
23015;SDS011;11674;52.428;13.584;2023-03-01T21:27:35;17.95;;;9.38;;
23015;SDS011;11674;52.428;13.584;2023-03-01T21:32:43;19.23;;;9.40;;
23015;SDS011;11674;52.428;13.584;2023-03-01T21:37:50;16.48;;;8.90;;
23015;SDS011;11674;52.428;13.584;2023-03-01T21:42:57;14.50;;;7.97;;
23015;SDS011;11674;52.428;13.584;2023-03-01T21:48:04;16.40;;;8.82;;
23015;SDS011;11674;52.428;13.584;2023-03-01T21:53:11;21.17;;;7.85;;
23015;SDS011;11674;52.428;13.584;2023-03-01T21:58:18;16.08;;;7.65;;
23015;SDS011;11674;52.428;13.584;2023-03-01T22:03:27;12.70;;;7.50;;
23015;SDS011;11674;52.428;13.584;2023-03-01T22:08:34;13.40;;;6.60;;
23015;SDS011;11674;52.428;13.584;2023-03-01T22:13:41;11.82;;;7.22;;
23015;SDS011;11674;52.428;13.584;2023-03-01T22:18:48;10.38;;;6.00;;
23015;SDS011;11674;52.428;13.584;2023-03-01T22:23:55;13.25;;;6.68;;
23015;SDS011;11674;52.428;13.584;2023-03-01T22:29:04;14.93;;;6.50;;
23015;SDS011;11674;52.428;13.584;2023-03-01T22:34:13;12.23;;;6.55;;
23015;SDS011;11674;52.428;13.584;2023-03-01T22:39:20;12.82;;;6.53;;
23015;SDS011;11674;52.428;13.584;2023-03-01T22:44:27;11.30;;;5.93;;
23015;SDS011;11674;52.428;13.584;2023-03-01T22:49:34;16.13;;;7.38;;
23015;SDS011;11674;52.428;13.584;2023-03-01T22:54:41;14.48;;;6.97;;
23015;SDS011;11674;52.428;13.584;2023-03-01T22:59:48;16.60;;;7.30;;
23015;SDS011;11674;52.428;13.584;2023-03-01T23:04:55;13.25;;;6.38;;
23015;SDS011;11674;52.428;13.584;2023-03-01T23:10:03;13.93;;;6.45;;
23015;SDS011;11674;52.428;13.584;2023-03-01T23:15:10;24.75;;;9.00;;
23015;SDS011;11674;52.428;13.584;2023-03-01T23:20:18;16.30;;;8.18;;
23015;SDS011;11674;52.428;13.584;2023-03-01T23:25:25;16.98;;;8.05;;
23015;SDS011;11674;52.428;13.584;2023-03-01T23:30:32;19.02;;;8.93;;
23015;SDS011;11674;52.428;13.584;2023-03-01T23:35:39;22.35;;;10.07;;
23015;SDS011;11674;52.428;13.584;2023-03-01T23:40:46;18.48;;;9.40;;
23015;SDS011;11674;52.428;13.584;2023-03-01T23:45:53;14.25;;;7.65;;
23015;SDS011;11674;52.428;13.584;2023-03-01T23:51:03;16.95;;;7.82;;
23015;SDS011;11674;52.428;13.584;2023-03-01T23:56:11;18.25;;;9.43;;
